• Join FlightAware (Why Join?)
  • Login
  • US Flag 
05:44PM EDT


 

Airport Tracker/Info


-or-


 

Live Flight TrackerFlight Track Log ✈ XOJ552 ✈ 01-Jul-2013 ✈ KMRY - KPHL

Flight Track Log - Related Links

Times and Time Zones

All times are in EDT time to prevent confusion due to time zone crossing. See the XOJ552 flight status page for this flight to view local times or setup timezone preferences in your user account.

Time Position Orientation Groundspeed Altitude Reporting Facility
EDT Latitude Longitude Course Direction KTS MPH feet Rate Location/Type
10:04PM 36.6000 -121.8833 28° Northeast 172 198 1,800  Level Northern Cal TRACON
10:05PM 36.6500 -121.8500 28° Northeast 229 264 4,700 2,580 Climbing Northern Cal TRACON
10:08PM 36.6594 -121.6594 86° East 277 319 10,200 2,400 Climbing Oakland Center
10:09PM 36.6653 -121.5561 86° East 289 333 12,500 2,160 Climbing Oakland Center
10:10PM 36.6742 -121.4383 85° East 318 366 14,700 2,100 Climbing Oakland Center
10:11PM 36.6825 -121.3125 85° East 347 399 16,900 2,220 Climbing Oakland Center
10:12PM 36.6917 -121.1833 85° East 365 420 19,300 2,160 Climbing Oakland Center
10:13PM 36.7000 -121.0542 85° East 371 427 21,400 1,680 Climbing Oakland Center
10:14PM 36.7078 -120.9242 86° East 374 430 22,800 1,080 Climbing Oakland Center
10:15PM 36.7344 -120.7908 76° East 403 464 23,700 1,320 Climbing Oakland Center
10:16PM 36.7811 -120.6578 66° East 421 484 25,500 1,860 Climbing Oakland Center
10:17PM 36.8336 -120.5033 67° East 423 487 27,600 1,740 Climbing Oakland Center
10:18PM 36.8819 -120.3689 66° East 425 489 29,100 1,320 Climbing Oakland Center
10:19PM 36.9311 -120.2294 66° East 435 501 30,300 1,140 Climbing Oakland Center
10:20PM 36.9844 -120.0750 67° East 446 513 31,500 1,200 Climbing Oakland Center
10:21PM 37.0353 -119.9289 66° East 456 525 32,800 1,140 Climbing Oakland Center
10:22PM 37.0861 -119.7814 67° East 461 531 33,900 1,140 Climbing Oakland Center
10:23PM 37.1369 -119.6350 66° East 459 528 35,200 1,200 Climbing Oakland Center
10:24PM 37.1881 -119.4864 67° East 463 533 36,400 1,440 Climbing Oakland Center
10:25PM 37.2364 -119.3467 66° East 444 511 38,200 1,560 Climbing Oakland Center
10:26PM 37.2825 -119.2086 67° East 430 495 39,600 1,020 Climbing Oakland Center
10:27PM 37.3289 -119.0719 67° East 426 490 40,300 540 Climbing Oakland Center
10:28PM 37.3744 -118.9342 67° East 428 493 40,800 300 Climbing Oakland Center
10:29PM 37.4308 -118.7692 67° East 434 499 41,000 60 Climbing Oakland Center
10:30PM 37.4783 -118.6247 67° East 447 514 41,000  Level Oakland Center
10:31PM 37.5275 -118.4800 67° East 449 517 41,000  Level Oakland Center
10:32PM 37.5739 -118.3358 68° East 447 514 41,000  Level Oakland Center
10:33PM 37.6211 -118.1931 67° East 444 511 41,000  Level Oakland Center
10:34PM 37.6681 -118.0489 68° East 443 510 41,000  Level Oakland Center
10:35PM 37.7161 -117.9028 67° East 449 517 41,000  Level Oakland Center
10:36PM 37.7633 -117.7558 68° East 453 521 41,000  Level Oakland Center
10:37PM 37.8111 -117.6094 68° East 453 521 41,000  Level Oakland Center
10:38PM 37.8569 -117.4628 68° East 450 518 41,000  Level Oakland Center
10:39PM 37.9117 -117.2889 68° East 448 516 41,000  Level Oakland Center
10:40PM 37.9567 -117.1444 68° East 448 516 41,000  Level Oakland Center
10:41PM 38.0025 -116.9992 68° East 453 521 41,000  Level Oakland Center
10:42PM 38.0478 -116.8539 68° East 450 518 41,000  Level Oakland Center
10:43PM 38.0931 -116.7097 68° East 444 511 41,000  Level Oakland Center
10:44PM 38.1200 -116.6231 68° East 443 510 41,000  Level Salt Lake Center
10:44PM 38.1381 -116.5658 68° East 442 509 41,000  Level Oakland Center
10:45PM 38.1653 -116.4778 69° East 444 511 41,000  Level Salt Lake Center
10:46PM 38.2092 -116.3336 69° East 441 507 41,000  Level Salt Lake Center
10:47PM 38.2539 -116.1881 69° East 442 509 41,000  Level Salt Lake Center
10:48PM 38.3000 -116.0403 68° East 448 516 41,000  Level Salt Lake Center
10:49PM 38.3444 -115.8925 69° East 447 514 41,000  Level Salt Lake Center
10:50PM 38.3978 -115.7136 69° East 451 519 41,000  Level Salt Lake Center
10:51PM 38.4431 -115.5628 69° East 455 524 41,000  Level Salt Lake Center
10:52PM 38.4872 -115.4150 69° East 449 517 41,000  Level Salt Lake Center
10:53PM 38.5294 -115.2700 70° East 457 526 41,000  Level Salt Lake Center
10:54PM 38.5742 -115.1189 69° East 456 525 41,000  Level Salt Lake Center
10:55PM 38.6164 -114.9731 70° East 443 510 41,000  Level Salt Lake Center
10:56PM 38.6672 -114.7992 69° East 436 502 41,000  Level Salt Lake Center
10:57PM 38.7092 -114.6547 70° East 434 499 41,000  Level Salt Lake Center
10:58PM 38.7508 -114.5083 70° East 435 501 41,000  Level Salt Lake Center
10:59PM 38.7936 -114.3614 69° East 439 505 41,000  Level Salt Lake Center
11:00PM 38.8350 -114.2133 70° East 441 507 41,000  Level Salt Lake Center
11:01PM 38.8772 -114.0644 70° East 443 510 41,000  Level Salt Lake Center
11:02PM 38.9194 -113.9150 70° East 445 512 41,000  Level Salt Lake Center
11:03PM 38.9606 -113.7650 71° East 445 512 41,000  Level Salt Lake Center
11:04PM 39.0022 -113.6144 70° East 447 514 41,000  Level Salt Lake Center
11:05PM 39.0444 -113.4644 70° East 446 513 41,000  Level Salt Lake Center
11:06PM 39.0933 -113.2831 71° East 446 513 41,000  Level Salt Lake Center
11:07PM 39.1350 -113.1311 70° East 447 514 41,000  Level Salt Lake Center
11:08PM 39.1761 -112.9808 71° East 447 514 41,000  Level Salt Lake Center
11:09PM 39.2172 -112.8303 71° East 445 512 41,000  Level Salt Lake Center
11:10PM 39.2567 -112.6786 71° East 445 512 41,000  Level Salt Lake Center
11:11PM 39.2975 -112.5275 71° East 446 513 41,000  Level Salt Lake Center
11:12PM 39.3300 -112.3753 75° East 444 511 41,000  Level Salt Lake Center
11:13PM 39.3556 -112.2178 78° East 447 514 41,000  Level Salt Lake Center
11:14PM 39.3850 -112.0625 76° East 448 516 41,000  Level Salt Lake Center
11:15PM 39.4139 -111.9075 76° East 446 513 41,000  Level Salt Lake Center
11:16PM 39.4467 -111.7197 77° East 449 517 41,000  Level Salt Lake Center
11:17PM 39.4772 -111.5642 76° East 448 516 41,000  Level Salt Lake Center
11:18PM 39.5050 -111.4067 77° East 449 517 41,000  Level Salt Lake Center
11:19PM 39.5322 -111.2503 77° East 451 519 41,000  Level Salt Lake Center
11:21PM 39.5603 -111.1003 76° East 448 516 41,000  Level Salt Lake Center
11:22PM 39.5903 -110.9231 78° East 450 518 41,000  Level Salt Lake Center
11:23PM 39.6158 -110.7711 78° East 450 518 41,000  Level Salt Lake Center
11:24PM 39.6464 -110.5936 77° East 452 520 41,000  Level Salt Lake Center
11:25PM 39.6717 -110.4406 78° East 452 520 41,000  Level Salt Lake Center
11:26PM 39.6983 -110.2878 77° East 454 522 41,000  Level Salt Lake Center
11:27PM 39.7275 -110.1097 78° East 452 520 41,000  Level Salt Lake Center
11:28PM 39.7528 -109.9558 78° East 455 524 41,000  Level Salt Lake Center
11:29PM 39.7858 -109.7489 78° East 456 525 41,000  Level Denver Center
11:30PM 39.8117 -109.5944 78° East 455 524 41,000  Level Denver Center
11:31PM 39.8322 -109.4661 78° East 457 526 41,000  Level Salt Lake Center
11:32PM 39.8614 -109.2842 78° East 459 528 41,000  Level Salt Lake Center
11:33PM 39.8858 -109.1272 78° East 460 529 41,000  Level Salt Lake Center
11:34PM 39.9108 -108.9711 78° East 459 528 41,000  Level Salt Lake Center
11:35PM 39.9389 -108.7869 79° East 459 528 41,000  Level Salt Lake Center
11:36PM 39.9642 -108.6289 78° East 460 529 41,000  Level Salt Lake Center
11:37PM 39.9875 -108.4728 79° East 458 527 41,000  Level Salt Lake Center
11:38PM 40.0122 -108.3161 78° East 459 528 41,000  Level Salt Lake Center
11:39PM 40.0386 -108.1339 79° East 457 526 41,000  Level Salt Lake Center
11:40PM 40.0617 -107.9778 79° East 457 526 41,000  Level Salt Lake Center
11:41PM 40.1089 -107.7475 75° East 455 524 41,000  Level Denver Center
11:42PM 40.1492 -107.5722 73° East 452 520 41,000 240 Level Denver Center
11:43PM 40.1833 -107.4214 73° East 454 522 41,600 540 Climbing Denver Center
11:44PM 40.2183 -107.2711 73° East 451 519 42,200 660 Climbing Denver Center
11:45PM 40.2564 -107.0989 74° East 444 511 43,000 720 Climbing Denver Center
11:46PM 40.2889 -106.9536 74° East 437 503 43,700 660 Climbing Denver Center
11:47PM 40.3225 -106.8053 73° East 428 493 44,400 600 Climbing Denver Center
11:48PM 40.3569 -106.6594 73° East 421 484 45,000 240 Climbing Denver Center
11:49PM 40.3881 -106.5131 74° East 415 478 45,000  Level Denver Center
11:51PM 40.4247 -106.3422 74° East 425 489 45,000  Level Denver Center
11:52PM 40.4561 -106.1975 74° East 431 496 45,000  Level Denver Center
11:53PM 40.4864 -106.0561 74° East 435 501 45,000  Level Denver Center
11:54PM 40.5264 -105.8697 74° East 440 506 45,000  Level Denver Center
11:55PM 40.5578 -105.7144 75° East 440 506 45,000  Level Denver Center
11:56PM 40.5908 -105.5558 75° East 445 512 45,000  Level Denver Center
11:57PM 40.6239 -105.4011 74° East 443 510 45,000  Level Denver Center
11:58PM 40.6556 -105.2450 75° East 440 506 45,000  Level Denver Center
11:59PM 40.6883 -105.0883 75° East 443 510 45,000  Level Denver Center
12:00AM 40.7203 -104.9308 75° East 444 511 45,000  Level Denver Center
12:01AM 40.7511 -104.7747 75° East 442 509 45,000  Level Denver Center
12:02AM 40.7828 -104.6186 75° East 440 506 45,000  Level Denver Center
12:03AM 40.8133 -104.4628 75° East 437 503 45,000  Level Denver Center
12:04AM 40.8450 -104.3058 75° East 440 506 45,000  Level Denver Center
12:05AM 40.8758 -104.1481 75° East 443 510 45,000  Level Denver Center
12:06AM 40.9119 -103.9597 76° East 442 509 45,000  Level Denver Center
12:07AM 40.9411 -103.8039 76° East 438 504 45,000  Level Denver Center
12:08AM 40.9722 -103.6494 75° East 434 499 45,000  Level Denver Center
12:09AM 40.9994 -103.5064 76° East 440 506 45,000  Level Denver Center
12:10AM 41.0322 -103.3275 76° East 448 516 45,000  Level Denver Center
12:11AM 41.0608 -103.1736 76° East 450 518 45,000  Level Denver Center
12:12AM 41.0933 -102.9936 76° East 451 519 45,000  Level Denver Center
12:13AM 41.1072 -102.8442 83° East 455 524 45,000  Level Denver Center
12:14AM 41.1217 -102.6578 84° East 456 525 45,000  Level Denver Center
12:15AM 41.1339 -102.4961 84° East 459 528 45,000  Level Denver Center
12:16AM 41.1469 -102.3336 84° East 462 532 45,000  Level Denver Center
12:17AM 41.1603 -102.1453 85° East 460 529 45,000  Level Denver Center
12:18AM 41.1728 -101.9853 84° East 455 524 45,000  Level Denver Center
12:19AM 41.1842 -101.8239 85° East 457 526 45,000  Level Denver Center
12:20AM 41.1978 -101.6361 84° East 458 527 45,000  Level Denver Center
12:21AM 41.2089 -101.4744 85° East 458 527 45,000  Level Denver Center
12:22AM 41.2197 -101.3144 85° East 454 522 45,000  Level Denver Center
12:23AM 41.2342 -101.0983 85° East 456 525 45,000  Level Denver Center
12:24AM 41.2444 -100.9375 85° East 455 524 45,000  Level Denver Center
12:25AM 41.2561 -100.7503 85° East 452 520 45,000  Level Denver Center
12:26AM 41.2664 -100.5914 85° East 449 517 45,000  Level Denver Center
12:27AM 41.2744 -100.4297 86° East 453 521 45,000  Level Denver Center
12:28AM 41.2861 -100.2403 85° East 458 527 45,000  Level Denver Center
12:29AM 41.2958 -100.0767 85° East 461 531 45,000  Level Denver Center
12:30AM 41.3036 -99.9142 86° East 461 531 45,000  Level Denver Center
12:31AM 41.3147 -99.7261 85° East 458 527 45,000  Level Denver Center
12:32AM 41.3219 -99.5656 87° East 455 524 45,000  Level Denver Center
12:33AM 41.3300 -99.4044 86° East 453 521 45,000  Level Denver Center
12:34AM 41.3383 -99.2369 86° East 453 521 45,000  Level Denver Center
12:35AM 41.3467 -99.0683 86° East 454 522 45,000  Level Denver Center
12:36AM 41.3544 -98.8992 86° East 452 520 45,000  Level Denver Center
12:38AM 41.3631 -98.7278 86° East 455 524 45,000  Level Denver Center
12:39AM 41.3692 -98.5572 87° East 456 525 45,000  Level Denver Center
12:40AM 41.3753 -98.3875 87° East 456 525 45,000  Level Denver Center
12:41AM 41.3825 -98.1861 87° East 454 522 45,000  Level Minneapolis Center
12:42AM 41.3869 -98.0294 88° East 454 522 45,000  Level Minneapolis Center
12:43AM 41.3925 -97.8603 87° East 456 525 45,000  Level Minneapolis Center
12:44AM 41.3972 -97.6903 88° East 459 528 45,000  Level Minneapolis Center
12:45AM 41.4014 -97.5181 88° East 463 533 45,000  Level Minneapolis Center
12:46AM 41.4056 -97.3478 88° East 462 532 45,000  Level Minneapolis Center
12:47AM 41.4097 -97.1761 88° East 462 532 45,000  Level Minneapolis Center
12:48AM 41.4133 -97.0061 88° East 461 531 45,000  Level Minneapolis Center
12:49AM 41.4172 -96.8350 88° East 461 531 45,000  Level Minneapolis Center
12:50AM 41.4208 -96.6656 88° East 459 528 45,000  Level Minneapolis Center
12:51AM 41.4250 -96.4628 88° East 456 525 45,000  Level Minneapolis Center
12:52AM 41.4264 -96.3114 89° East 461 531 45,000  Level Minneapolis Center
12:53AM 41.4289 -96.1389 89° East 464 534 45,000  Level Minneapolis Center
12:54AM 41.4306 -95.9669 89° East 463 533 45,000  Level Minneapolis Center
12:55AM 41.4317 -95.7956 89° East 464 534 45,000  Level Minneapolis Center
12:56AM 41.4356 -95.6239 88° East 463 533 45,000  Level Minneapolis Center
12:57AM 41.4358 -95.4497 90° East 466 536 45,000  Level Minneapolis Center
12:58AM 41.4378 -95.2808 89° East 462 532 45,000  Level Minneapolis Center
12:59AM 41.4392 -95.1106 89° East 461 531 45,000  Level Minneapolis Center
01:00AM 41.4400 -94.9414 90° East 459 528 45,000  Level Minneapolis Center
01:01AM 41.4397 -94.7708 90° East 460 529 45,000  Level Minneapolis Center
01:02AM 41.4400 -94.5997 90° East 462 532 45,000  Level Minneapolis Center
01:03AM 41.4394 -94.4294 90° East 461 531 45,000  Level Minneapolis Center
01:04AM 41.4394 -94.2572 90° East 464 534 45,000  Level Minneapolis Center
01:05AM 41.4394 -94.0600 90° East 464 534 45,000  Level Minneapolis Center
01:06AM 41.4375 -93.8883 91° East 465 535 45,000  Level Minneapolis Center
01:07AM 41.4381 -93.7147 90° East 468 539 45,000  Level Minneapolis Center
01:08AM 41.4361 -93.5442 91° East 467 537 45,000  Level Minneapolis Center
01:09AM 41.4344 -93.3703 91° East 470 541 45,000  Level Minneapolis Center
01:10AM 41.4325 -93.1986 91° East 468 539 45,000  Level Minneapolis Center
01:11AM 41.4297 -93.0269 91° East 467 537 45,000  Level Minneapolis Center
01:12AM 41.4267 -92.8542 91° East 467 537 45,000  Level Minneapolis Center
01:13AM 41.4236 -92.6839 91° East 465 535 45,000  Level Minneapolis Center
01:14AM 41.4194 -92.5103 92° East 468 539 45,000  Level Chicago Center
01:15AM 41.4164 -92.3322 91° East 462 532 45,000  Level Chicago Center
01:16AM 41.4128 -92.1614 92° East 465 535 45,000  Level Chicago Center
01:17AM 41.4078 -91.9911 92° East 467 537 45,000  Level Chicago Center
01:18AM 41.4039 -91.8228 92° East 463 533 45,000  Level Chicago Center
01:19AM 41.4000 -91.6564 92° East 458 527 45,000  Level Chicago Center
01:20AM 41.3947 -91.4875 92° East 461 531 45,000  Level Chicago Center
01:21AM 41.3892 -91.3128 92° East 456 525 45,000  Level Chicago Center
01:22AM 41.3839 -91.1439 92° East 455 524 45,000  Level Chicago Center
01:23AM 41.3783 -90.9764 92° East 455 524 45,000  Level Chicago Center
01:24AM 41.3731 -90.8056 92° East 459 528 45,000  Level Chicago Center
01:25AM 41.3667 -90.6353 93° East 459 528 45,000  Level Chicago Center
01:26AM 41.3592 -90.4683 93° East 454 522 45,000  Level Chicago Center
01:27AM 41.3525 -90.2964 93° East 461 531 45,000  Level Chicago Center
01:28AM 41.3469 -90.1244 92° East 463 533 45,000  Level Chicago Center
01:29AM 41.3392 -89.9533 93° East 461 531 45,000  Level Chicago Center
01:30AM 41.3319 -89.7797 93° East 466 536 45,000  Level Chicago Center
01:31AM 41.3250 -89.6075 93° East 465 535 45,000  Level Chicago Center
01:32AM 41.3161 -89.4336 94° East 468 539 45,000  Level Chicago Center
01:33AM 41.3086 -89.2597 93° East 469 540 45,000  Level Chicago Center
01:34AM 41.2981 -89.0758 94° East 473 544 45,000  Level Chicago Center
01:35AM 41.2894 -88.9028 94° East 474 545 45,000  Level Chicago Center
01:36AM 41.2803 -88.7306 94° East 474 545 45,000  Level Chicago Center
01:37AM 41.2706 -88.5572 94° East 478 550 45,000  Level Chicago Center
01:38AM 41.2606 -88.3875 94° East 470 541 45,000  Level Chicago Center
01:39AM 41.2506 -88.2186 94° East 468 539 45,000  Level Chicago Center
01:40AM 41.2417 -88.0508 94° East 466 536 45,000  Level Chicago Center
01:41AM 41.2303 -87.8825 95° East 468 539 45,000  Level Chicago Center
01:42AM 41.2211 -87.7128 94° East 468 539 45,000  Level Chicago Center
01:43AM 41.2108 -87.5442 95° East 463 533 45,000  Level Chicago Center
01:44AM 41.1997 -87.3764 95° East 461 531 45,000  Level Chicago Center
01:45AM 41.1883 -87.2069 95° East 464 534 45,000  Level Chicago Center
01:46AM 41.1733 -87.0022 95° East 467 537 45,000  Level Chicago Center
01:47AM 41.1633 -86.8311 94° East 469 540 45,000  Level Chicago Center
01:48AM 41.1519 -86.6856 96° East 468 539 45,000  Level Chicago Center
01:49AM 41.1397 -86.5144 95° East 470 541 45,000  Level Chicago Center
01:50AM 41.1267 -86.3419 96° East 472 543 45,000  Level Chicago Center
01:51AM 41.1150 -86.1714 95° East 469 540 45,000  Level Chicago Center
01:52AM 41.1008 -86.0017 96° East 467 537 45,000  Level Chicago Center
01:53AM 41.0881 -85.8306 96° East 470 541 45,000  Level Chicago Center
01:54AM 41.0714 -85.6278 96° East 468 539 45,000  Level Chicago Center
01:55AM 41.0567 -85.4583 97° East 467 537 45,000  Level Chicago Center
01:56AM 41.0425 -85.2850 96° East 477 549 45,000  Level Chicago Center
01:57AM 41.0275 -85.1122 97° East 482 555 45,000  Level Chicago Center
01:58AM 41.0139 -84.9428 96° East 471 542 45,000  Level Chicago Center
01:59AM 40.9986 -84.7731 97° East 467 537 45,000  Level Chicago Center
02:00AM 40.9836 -84.6022 97° East 469 540 45,000  Level Chicago Center
02:01AM 40.9686 -84.4314 97° East 471 542 45,000  Level Chicago Center
02:02AM 40.9522 -84.2592 97° East 472 543 45,000  Level Chicago Center
02:03AM 40.9361 -84.0878 97° East 473 544 45,000  Level Chicago Center
02:04AM 40.9200 -83.9161 97° East 472 543 45,000  Level Chicago Center
02:05AM 40.9036 -83.7458 97° East 470 541 45,000  Level Chicago Center
02:06AM 40.8875 -83.5761 97° East 468 539 45,000  Level Chicago Center
02:07AM 40.8689 -83.4061 98° East 469 540 45,000  Level Chicago Center
02:08AM 40.8519 -83.2075 96° East 466 536 45,000  Level Cleveland Center
02:09AM 40.8350 -83.0367 97° East 460 529 45,000  Level Cleveland Center
02:10AM 40.8156 -82.8658 98° East 469 540 45,000  Level Cleveland Center
02:11AM 40.7919 -82.6783 99° East 469 540 45,000  Level Cleveland Center
02:12AM 40.7742 -82.5050 98° East 474 545 45,000  Level Cleveland Center
02:13AM 40.7542 -82.3347 99° East 474 545 45,000  Level Cleveland Center
02:14AM 40.7336 -82.1586 99° East 474 545 45,000  Level Cleveland Center
02:15AM 40.7153 -81.9856 98° East 479 551 45,000  Level Cleveland Center
02:16AM 40.6964 -81.8128 98° East 479 551 45,000  Level Cleveland Center
02:17AM 40.6772 -81.6372 98° East 479 551 45,000  Level Cleveland Center
02:18AM 40.6558 -81.4617 99° East 486 559 45,000  Level Cleveland Center
02:19AM 40.6361 -81.2889 98° East 486 559 45,000  Level Cleveland Center
02:20AM 40.6142 -81.1136 99° East 486 559 45,000  Level Cleveland Center
02:21AM 40.6022 -80.9386 95° East 480 552 45,000  Level Cleveland Center
02:22AM 40.5881 -80.7581 96° East 480 552 45,000  Level Cleveland Center
02:23AM 40.5758 -80.5831 95° East 480 552 45,000  Level Cleveland Center
02:24AM 40.5633 -80.4411 97° East 480 552 45,000  Level Cleveland Center
02:25AM 40.5419 -80.2361 98° East 480 552 45,000  Level Cleveland Center
02:26AM 40.5267 -80.0586 96° East 485 558 45,000  Level Cleveland Center
02:27AM 40.5175 -79.8947 94° East 500 575 45,000  Level Cleveland Center
02:28AM 40.5017 -79.7231 97° East 488 562 45,000  Level Cleveland Center
02:29AM 40.4856 -79.5375 96° East 473 544 45,000  Level Cleveland Center
02:30AM 40.4694 -79.3714 97° East 473 544 45,000  Level Cleveland Center
02:31AM 40.4508 -79.2081 98° East 461 531 45,000  Level Cleveland Center
02:32AM 40.4364 -79.0528 97° East 461 531 45,000  Level Cleveland Center
02:33AM 40.4214 -78.8814 97° East 461 531 45,000  Level Cleveland Center
02:34AM 40.4042 -78.7156 98° East 466 536 45,000  Level Cleveland Center
02:35AM 40.3889 -78.5467 97° East 466 536 45,000 -360 Level Cleveland Center
02:38AM 40.3522 -78.1769 97° East 447 514 44,000 -1,260 Descending New York Center
02:39AM 40.3344 -77.9925 97° East 453 521 41,100 -2,760 Descending New York Center
02:40AM 40.3178 -77.8219 97° East 459 528 38,600 -2,520 Descending New York Center
02:41AM 40.3006 -77.6542 98° East 465 535 36,100 -2,460 Descending New York Center
02:42AM 40.2828 -77.4892 98° East 465 535 33,700 -2,400 Descending New York Center
02:43AM 40.2631 -77.3239 99° East 465 535 31,300 -2,400 Descending New York Center
02:44AM 40.2433 -77.1506 98° East 465 535 29,000 -2,340 Descending New York Center
02:45AM 40.2233 -76.9775 99° East 478 550 26,600 -2,340 Descending New York Center
02:46AM 40.2050 -76.8072 98° East 478 550 24,400 -2,280 Descending New York Center
02:47AM 40.1861 -76.6453 99° East 466 536 22,200 -2,160 Descending New York Center
02:48AM 40.1686 -76.4917 98° East 446 513 20,100 -2,160 Descending New York Center
02:49AM 40.1528 -76.3464 98° East 412 474 17,900 -2,040 Descending New York Center
02:50AM 40.1344 -76.2011 99° East 407 468 16,100 -1,860 Descending New York Center
02:51AM 40.1200 -76.0586 98° East 407 468 14,300 -1,800 Descending New York Center
02:52AM 40.1028 -75.9297 100° East 395 455 12,500 -1,860 Descending New York Center
02:53AM 40.0733 -75.7947 106° East 371 427 10,600 -1,620 Descending New York Center
02:54AM 40.0331 -75.7078 121° Southeast 323 372 9,300 -1,860 Descending New York Center
02:55AM 39.9872 -75.6097 121° Southeast 297 342 7,000 -2,460 Descending New York Center
02:56AM 39.9372 -75.5575 141° Southeast 270 311 4,300 -2,040 Descending New York Center
02:57AM 39.8722 -75.5125 152° Southeast 256 295 3,000 -720 Descending New York Center
02:58AM 39.8344 -75.4692 139° Southeast 204 235 2,900 -480 Descending New York Center
02:58AM 39.8333 -75.4333 92° East 195 224 2,300 -1,080 Descending Philadelphia TRACON
02:59AM 39.8500 -75.3667 72° East 175 201 1,300 -900 Descending Philadelphia TRACON
03:00AM 39.8500 -75.3167 90° East 146 168 700 3,480 Descending Philadelphia TRACON
03:02AM 39.8647 -75.2253 78° East 171 197 10,000 3,600 Climbing New York Center
03:03AM 39.8711 -75.1661 82° East 171 197 10,000  Level New York Center
03:04AM 39.8797 -75.1044 80° East 171 197 10,000  Level New York Center
03:05AM 39.8831 -75.0694 83° East 171 197 10,000  Level New York Center
03:08AM 39.8722 -75.2409 265° West  Level Estimated
03:15AM 39.8722 -75.2409 101° East  Level Estimated
03:16AM 39.8722 -75.2409 101° East  Level Estimated